Time;durP1;ratioP1;P1;durP2;ratioP2;P2;SDS_P1;SDS_P2;PMS_P1;PMS_P2;Temp;Humidity;BMP_temperature;BMP_pressure;BME280_temperature;BME280_humidity;BME280_pressure;Samples;Min_cycle;Max_cycle;Signal;HPM_P1;HPM_P2
2021/01/05 00:00:12;;;;;;;1999.90;999.90;;;;;;;0.15;93.78;101846.29;1788198;79;21127;-69
2021/01/05 00:02:40;;;;;;;1999.90;999.90;;;;;;;0.13;93.81;101852.47;1785946;79;21107;-70
2021/01/05 00:05:09;;;;;;;1999.90;999.90;;;;;;;0.13;93.75;101851.63;1769677;79;21350;-70
2021/01/05 00:07:37;;;;;;;1999.90;999.90;;;;;;;0.14;93.71;101847.86;1770281;79;21147;-70
2021/01/05 00:10:07;;;;;;;1999.90;999.90;;;;;;;0.14;94.07;101844.61;1777205;79;21187;-69
2021/01/05 00:12:35;;;;;;;1999.90;999.90;;;;;;;0.12;93.59;101846.70;1778817;79;21139;-70
2021/01/05 00:15:03;;;;;;;1999.90;999.90;;;;;;;0.11;93.45;101844.19;1775966;79;21071;-70
2021/01/05 00:17:31;;;;;;;1999.90;999.90;;;;;;;0.13;93.31;101846.19;1775531;79;21362;-69
2021/01/05 00:19:59;;;;;;;1999.90;999.90;;;;;;;0.11;93.40;101840.11;1783204;79;21126;-69
2021/01/05 00:22:27;;;;;;;1999.90;999.90;;;;;;;0.11;93.47;101842.83;1774556;79;20993;-69
2021/01/05 00:24:55;;;;;;;1999.90;999.90;;;;;;;0.10;93.59;101839.80;1771544;79;21570;-71
2021/01/05 00:27:23;;;;;;;1999.90;999.90;;;;;;;0.08;93.02;101840.00;1778877;79;21143;-73
2021/01/05 00:29:51;;;;;;;1999.90;999.90;;;;;;;0.08;93.11;101838.64;1771201;79;21449;-70
2021/01/05 00:32:21;;;;;;;1999.90;999.90;;;;;;;0.07;92.89;101832.04;1776388;79;21083;-71
2021/01/05 00:34:49;;;;;;;1999.90;999.90;;;;;;;0.06;93.04;101838.53;1784735;79;21538;-71
2021/01/05 00:37:17;;;;;;;1999.90;999.90;;;;;;;0.06;93.09;101831.20;1788695;79;21072;-69
2021/01/05 00:39:45;;;;;;;1999.90;999.90;;;;;;;0.05;93.46;101834.97;1780035;79;21080;-71
2021/01/05 00:42:13;;;;;;;1999.90;999.90;;;;;;;0.05;93.24;101827.33;1774796;79;22265;-68
2021/01/05 00:44:41;;;;;;;1999.90;999.90;;;;;;;0.03;93.40;101822.62;1775434;79;21135;-69
2021/01/05 00:47:09;;;;;;;1999.90;999.90;;;;;;;0.01;92.96;101830.99;1784334;79;21171;-70
2021/01/05 00:49:37;;;;;;;1999.90;999.90;;;;;;;-0.01;92.71;101828.45;1770690;78;21095;-70
2021/01/05 00:52:05;;;;;;;1999.90;999.90;;;;;;;-0.03;92.64;101831.06;1776651;79;21104;-70
2021/01/05 00:54:34;;;;;;;1999.90;999.90;;;;;;;-0.03;92.54;101827.81;1780178;79;21454;-70
2021/01/05 00:57:10;;;;;;;1999.90;999.90;;;;;;;-0.03;92.78;101826.45;1775733;79;21083;-69
2021/01/05 00:59:40;;;;;;;1999.90;999.90;;;;;;;-0.03;92.63;101825.09;1778996;79;21425;-70
2021/01/05 01:02:11;;;;;;;1999.90;999.90;;;;;;;-0.01;93.08;101818.08;1787490;79;21131;-68
2021/01/05 01:04:39;;;;;;;1999.90;999.90;;;;;;;0.00;93.20;101825.23;1776895;79;21664;-69
2021/01/05 01:07:07;;;;;;;1999.90;999.90;;;;;;;-0.01;93.31;101823.00;1776066;79;22223;-69
2021/01/05 01:09:35;;;;;;;1999.90;999.90;;;;;;;-0.01;93.47;101821.64;1780171;79;21129;-69
2021/01/05 01:12:19;;;;;;;1999.90;999.90;;;;;;;-0.03;93.35;101822.89;1784172;79;21129;-69
2021/01/05 01:14:48;;;;;;;1999.90;999.90;;;;;;;-0.04;93.54;101822.58;1783099;79;21088;-69
2021/01/05 01:17:17;;;;;;;1999.90;999.90;;;;;;;-0.06;93.83;101821.42;1784118;79;21060;-69
2021/01/05 01:19:46;;;;;;;1999.90;999.90;;;;;;;-0.10;93.58;101822.89;1757400;79;21195;-71
2021/01/05 01:22:17;;;;;;;1999.90;999.90;;;;;;;-0.12;93.69;101824.14;1772369;79;21146;-70
2021/01/05 01:29:04;;;;;;;1999.90;999.90;;;;;;;-0.11;93.46;101825.30;1763719;79;22181;-70
2021/01/05 01:31:32;;;;;;;1999.90;999.90;;;;;;;-0.19;93.28;101826.85;1727656;82;21765;-70
2021/01/05 01:34:00;;;;;;;1999.90;999.90;;;;;;;-0.21;93.20;101812.61;1719489;82;22318;-69
2021/01/05 01:36:29;;;;;;;1999.90;999.90;;;;;;;-0.21;93.44;101813.98;1718384;82;20977;-69
2021/01/05 01:38:57;;;;;;;1999.90;999.90;;;;;;;-0.21;93.25;101812.61;1714117;82;21056;-69
2021/01/05 01:41:25;;;;;;;1999.90;999.90;;;;;;;-0.21;93.50;101814.50;1720471;82;20973;-69
2021/01/05 01:43:55;;;;;;;1999.90;999.90;;;;;;;-0.23;93.31;101802.98;1722056;81;21540;-70
2021/01/05 01:46:24;;;;;;;1999.90;999.90;;;;;;;-0.25;93.23;101805.91;1719875;82;21378;-69
2021/01/05 01:48:52;;;;;;;1999.90;999.90;;;;;;;-0.26;93.41;101800.67;1675631;82;21001;-69
2021/01/05 01:51:21;;;;;;;1999.90;999.90;;;;;;;-0.28;93.10;101801.41;1716277;82;21032;-70
2021/01/05 01:54:28;;;;;;;1999.90;999.90;;;;;;;-0.30;92.89;101800.25;1717959;82;20972;-70
2021/01/05 01:57:25;;;;;;;1999.90;999.90;;;;;;;-0.30;93.08;101804.33;1719873;82;20989;-67
2021/01/05 02:00:20;;;;;;;1999.90;999.90;;;;;;;-0.33;92.80;101794.70;1691543;83;22276;-70
2021/01/05 02:03:21;;;;;;;1999.90;999.90;;;;;;;-0.35;92.74;101802.23;1712157;81;21049;-68
2021/01/05 02:06:29;;;;;;;1999.90;999.90;;;;;;;-0.38;92.71;101790.92;1719575;82;21174;-70
2021/01/05 02:09:33;;;;;;;1999.90;999.90;;;;;;;-0.38;92.89;101795.01;1712400;82;21140;-68
2021/01/05 02:12:12;;;;;;;1999.90;999.90;;;;;;;-0.40;92.96;101793.02;1718362;82;20977;-68
2021/01/05 02:15:11;;;;;;;1999.90;999.90;;;;;;;-0.35;93.12;101788.63;1879557;75;22726;-69
2021/01/05 02:18:07;;;;;;;1999.90;999.90;;;;;;;-0.40;93.22;101782.13;1807429;79;21215;-69
2021/01/05 02:20:46;;;;;;;1999.90;999.90;;;;;;;-0.43;92.98;101782.03;1808735;79;21369;-70
2021/01/05 02:23:32;;;;;;;1999.90;999.90;;;;;;;-0.44;92.74;101783.07;1772637;79;20981;-69
2021/01/05 02:26:12;;;;;;;1999.90;999.90;;;;;;;-0.44;92.78;101788.51;1816082;78;20937;-70
2021/01/05 02:28:47;;;;;;;1999.90;999.90;;;;;;;-0.46;92.66;101781.08;1780831;79;21127;-69
2021/01/05 02:31:37;;;;;;;1999.90;999.90;;;;;;;-0.47;92.73;101780.77;1807189;78;20937;-69
2021/01/05 02:34:14;;;;;;;1999.90;999.90;;;;;;;-0.47;92.75;101776.68;1810885;79;21374;-69
2021/01/05 02:36:56;;;;;;;1999.90;999.90;;;;;;;-0.50;92.50;101774.89;1815595;79;20985;-70
2021/01/05 02:40:09;;;;;;;1999.90;999.90;;;;;;;-0.50;92.61;101772.17;1815551;78;20964;-71
2021/01/05 02:43:21;;;;;;;1999.90;999.90;;;;;;;-0.52;92.85;101768.30;1807040;78;21091;-70
2021/01/05 02:46:45;;;;;;;1999.90;999.90;;;;;;;-0.53;92.85;101772.06;1809675;79;21542;-70
2021/01/05 02:49:46;;;;;;;1999.90;999.90;;;;;;;-0.52;92.72;101772.38;1811247;79;21192;-69
2021/01/05 02:53:02;;;;;;;1999.90;999.90;;;;;;;-0.54;92.59;101768.20;1757993;79;21143;-70
2021/01/05 02:56:34;;;;;;;1999.90;999.90;;;;;;;-0.54;92.64;101770.39;1805814;79;20926;-70
2021/01/05 02:59:34;;;;;;;1999.90;999.90;;;;;;;-0.52;92.81;101772.91;1776358;79;21107;-70
2021/01/05 03:02:44;;;;;;;1999.90;999.90;;;;;;;-0.51;92.94;101774.58;1813884;79;20938;-70
2021/01/05 03:05:33;;;;;;;1999.90;999.90;;;;;;;-0.44;92.86;101769.99;1870018;75;22679;-69
2021/01/05 03:08:10;;;;;;;1999.90;999.90;;;;;;;-0.46;92.99;101771.56;1797466;78;29105;-68
2021/01/05 03:11:06;;;;;;;1999.90;999.90;;;;;;;-0.51;92.75;101769.98;1756308;80;21597;-68
2021/01/05 03:14:21;;;;;;;1999.90;999.90;;;;;;;-0.52;92.69;101775.10;1776560;80;21013;-69
2021/01/05 03:17:13;;;;;;;1999.90;999.90;;;;;;;-0.53;92.30;101773.95;1784586;80;20969;-71
2021/01/05 03:20:07;;;;;;;1999.90;999.90;;;;;;;-0.53;92.44;101772.06;1788863;80;20976;-71
2021/01/05 03:22:57;;;;;;;1999.90;999.90;;;;;;;-0.52;92.69;101772.91;1779171;80;20969;-70
2021/01/05 03:25:47;;;;;;;1999.90;999.90;;;;;;;-0.52;92.26;101763.39;1778990;80;20949;-70
2021/01/05 03:28:34;;;;;;;1999.90;999.90;;;;;;;-0.52;92.45;101768.30;1768374;80;21397;-69
2021/01/05 03:31:41;;;;;;;1999.90;999.90;;;;;;;-0.51;92.50;101769.98;1711894;81;20949;-70
2021/01/05 03:34:27;;;;;;;1999.90;999.90;;;;;;;-0.50;92.27;101767.58;1735517;81;21091;-69
2021/01/05 03:37:08;;;;;;;1999.90;999.90;;;;;;;-0.47;92.26;101764.45;1862723;75;22651;-69
2021/01/05 03:39:54;;;;;;;1999.90;999.90;;;;;;;-0.52;92.26;101763.39;1844882;76;21566;-69
2021/01/05 03:42:40;;;;;;;1999.90;999.90;;;;;;;-0.53;92.16;101761.19;1840535;77;21308;-72
2021/01/05 03:45:30;;;;;;;1999.90;999.90;;;;;;;-0.51;91.88;101763.70;1842501;76;21008;-72
2021/01/05 03:48:17;;;;;;;1999.90;999.90;;;;;;;-0.50;92.21;101768.09;1837775;76;21609;-70
2021/01/05 03:51:03;;;;;;;1999.90;999.90;;;;;;;-0.51;91.85;101756.38;1836523;76;21605;-71
2021/01/05 03:53:49;;;;;;;1999.90;999.90;;;;;;;-0.50;91.65;101760.78;1834459;77;20939;-72
2021/01/05 03:56:35;;;;;;;1999.90;999.90;;;;;;;-0.48;91.57;101760.05;1842850;76;21187;-72
2021/01/05 03:59:21;;;;;;;1999.90;999.90;;;;;;;-0.49;91.76;101767.89;1833144;77;20962;-70
2021/01/05 04:02:08;;;;;;;1999.90;999.90;;;;;;;-0.48;91.86;101757.84;1836217;77;21064;-70
2021/01/05 04:04:35;;;;;;;1999.90;999.90;;;;;;;-0.48;91.51;101764.65;1838087;76;21131;-73
2021/01/05 04:07:03;;;;;;;1999.90;999.90;;;;;;;-0.46;91.55;101767.48;1832837;76;21147;-71
2021/01/05 04:09:31;;;;;;;1999.90;999.90;;;;;;;-0.46;91.57;101760.68;1844918;76;21122;-70
2021/01/05 04:11:59;;;;;;;1999.90;999.90;;;;;;;-0.44;91.50;101754.52;1837207;76;21175;-71
2021/01/05 04:14:28;;;;;;;1999.90;999.90;;;;;;;-0.44;91.42;101749.07;1839806;76;20941;-71
2021/01/05 04:16:55;;;;;;;1999.90;999.90;;;;;;;-0.44;91.48;101759.95;1843296;76;21088;-71
2021/01/05 04:19:23;;;;;;;1999.90;999.90;;;;;;;-0.44;91.19;101738.72;1839860;76;21163;-72
2021/01/05 04:21:51;;;;;;;1999.90;999.90;;;;;;;-0.44;91.17;101746.88;1842840;77;21128;-70
2021/01/05 04:24:19;;;;;;;1999.90;999.90;;;;;;;-0.42;91.64;101748.86;1842115;76;21143;-70
2021/01/05 04:26:47;;;;;;;1999.90;999.90;;;;;;;-0.44;91.29;101738.72;1844466;76;21532;-69
2021/01/05 04:29:15;;;;;;;1999.90;999.90;;;;;;;-0.42;91.08;101746.14;1837345;76;21514;-69
2021/01/05 04:31:44;;;;;;;1999.90;999.90;;;;;;;-0.42;90.89;101743.42;1843317;76;21152;-68
2021/01/05 04:34:14;;;;;;;1999.90;999.90;;;;;;;-0.42;91.16;101752.42;1833105;76;21013;-68
2021/01/05 04:36:42;;;;;;;1999.90;999.90;;;;;;;-0.41;91.36;101747.82;1846099;76;21119;-67
2021/01/05 04:39:10;;;;;;;1999.90;999.90;;;;;;;-0.42;91.44;101744.78;1838939;76;21130;-69
2021/01/05 04:41:49;;;;;;;1999.90;999.90;;;;;;;-0.42;91.13;101750.23;1847718;76;20945;-69
2021/01/05 04:44:17;;;;;;;1999.90;999.90;;;;;;;-0.43;90.99;101744.47;1848347;76;21047;-69
2021/01/05 04:46:55;;;;;;;1999.90;999.90;;;;;;;-0.42;91.03;101745.63;1848865;77;21382;-69
2021/01/05 04:49:53;;;;;;;1999.90;999.90;;;;;;;-0.40;91.02;101739.97;1823427;77;21555;-69
2021/01/05 04:52:25;;;;;;;1999.90;999.90;;;;;;;-0.39;91.32;101738.41;1840016;77;21487;-70
2021/01/05 04:55:13;;;;;;;1999.90;999.90;;;;;;;-0.42;91.12;101742.90;1822399;77;21075;-69
2021/01/05 04:57:49;;;;;;;1999.90;999.90;;;;;;;-0.36;91.03;101745.31;1887088;73;23226;-69
2021/01/05 05:00:25;;;;;;;1999.90;999.90;;;;;;;-0.41;91.05;101748.66;1858582;76;20963;-67
2021/01/05 05:03:22;;;;;;;1999.90;999.90;;;;;;;-0.40;91.23;101738.61;1815303;77;21380;-67
2021/01/05 05:06:07;;;;;;;1999.90;999.90;;;;;;;-0.42;90.74;101742.06;1843804;77;20948;-66
2021/01/05 05:09:31;;;;;;;1999.90;999.90;;;;;;;-0.39;90.51;101733.49;1866493;75;22676;-68
2021/01/05 05:12:07;;;;;;;1999.90;999.90;;;;;;;-0.43;90.38;101735.79;1840786;77;20969;-68
2021/01/05 05:14:57;;;;;;;1999.90;999.90;;;;;;;-0.41;90.88;101732.86;1839950;77;21369;-67
2021/01/05 05:18:00;;;;;;;1999.90;999.90;;;;;;;-0.41;90.90;101732.34;1840941;77;20937;-70
2021/01/05 05:20:36;;;;;;;1999.90;999.90;;;;;;;-0.41;90.76;101730.98;1847571;77;20989;-71
2021/01/05 05:23:35;;;;;;;1999.90;999.90;;;;;;;-0.40;90.87;101735.37;1834857;75;20953;-70
2021/01/05 05:26:20;;;;;;;1999.90;999.90;;;;;;;-0.39;90.65;101744.38;1845570;77;20921;-70
2021/01/05 05:29:05;;;;;;;1999.90;999.90;;;;;;;-0.41;90.37;101737.78;1842333;77;21351;-69
2021/01/05 05:31:33;;;;;;;1999.90;999.90;;;;;;;-0.38;90.42;101737.89;1826521;77;21554;-68
2021/01/05 05:34:05;;;;;;;1999.90;999.90;;;;;;;-0.38;90.66;101735.16;1840049;77;21009;-71
2021/01/05 05:37:02;;;;;;;1999.90;999.90;;;;;;;-0.36;90.69;101741.23;1811581;77;21559;-70
2021/01/05 05:39:54;;;;;;;1999.90;999.90;;;;;;;-0.38;90.50;101735.16;1850524;77;20945;-69
2021/01/05 05:42:36;;;;;;;1999.90;999.90;;;;;;;-0.38;90.48;101741.44;1843346;77;21259;-73
2021/01/05 05:45:12;;;;;;;1999.90;999.90;;;;;;;-0.37;90.44;101740.92;1833200;77;21012;-69
2021/01/05 05:47:48;;;;;;;1999.90;999.90;;;;;;;-0.36;90.43;101736.63;1843675;75;21546;-69
2021/01/05 05:50:32;;;;;;;1999.90;999.90;;;;;;;-0.32;90.31;101740.61;1873632;75;26530;-69
2021/01/05 05:53:13;;;;;;;1999.90;999.90;;;;;;;-0.36;90.45;101736.63;1847193;77;20941;-69
2021/01/05 05:55:53;;;;;;;1999.90;999.90;;;;;;;-0.36;90.54;101747.52;1856339;76;22283;-68
2021/01/05 05:58:25;;;;;;;1999.90;999.90;;;;;;;-0.35;90.73;101736.95;1852844;76;21553;-68
2021/01/05 06:00:55;;;;;;;1999.90;999.90;;;;;;;-0.35;90.72;101737.47;1850679;76;21173;-68
2021/01/05 06:03:25;;;;;;;1999.90;999.90;;;;;;;-0.38;90.18;101731.92;1825842;77;20899;-68
2021/01/05 06:05:53;;;;;;;1999.90;999.90;;;;;;;-0.36;90.48;101740.71;1849527;76;20964;-68
2021/01/05 06:08:21;;;;;;;1999.90;999.90;;;;;;;-0.35;90.51;101743.75;1852201;76;21367;-68
2021/01/05 06:10:51;;;;;;;1999.90;999.90;;;;;;;-0.33;90.72;101739.45;1849077;76;20993;-70
2021/01/05 06:13:19;;;;;;;1999.90;999.90;;;;;;;-0.34;90.72;101735.91;1851021;76;20960;-69
2021/01/05 06:15:47;;;;;;;1999.90;999.90;;;;;;;-0.38;90.19;101727.84;1843682;76;20972;-68
2021/01/05 06:18:16;;;;;;;1999.90;999.90;;;;;;;-0.36;90.14;101731.71;1854964;76;20968;-70
2021/01/05 06:20:44;;;;;;;1999.90;999.90;;;;;;;-0.37;90.51;101730.04;1847022;76;21519;-69
2021/01/05 06:23:12;;;;;;;1999.90;999.90;;;;;;;-0.37;90.43;101735.48;1847526;76;21969;-71
2021/01/05 06:25:39;;;;;;;1999.90;999.90;;;;;;;-0.36;90.54;101731.71;1857283;76;21098;-68
2021/01/05 06:28:07;;;;;;;1999.90;999.90;;;;;;;-0.35;90.63;101731.51;1848183;76;20957;-69
2021/01/05 06:30:35;;;;;;;1999.90;999.90;;;;;;;-0.37;90.44;101723.23;1851226;76;20948;-68
2021/01/05 06:33:03;;;;;;;1999.90;999.90;;;;;;;-0.36;90.32;101724.39;1848823;76;21355;-70
2021/01/05 06:35:31;;;;;;;1999.90;999.90;;;;;;;-0.36;90.40;101718.95;1850519;76;21164;-69
2021/01/05 06:37:59;;;;;;;1999.90;999.90;;;;;;;-0.33;90.33;101713.09;1844465;76;21091;-70
2021/01/05 06:40:27;;;;;;;1999.90;999.90;;;;;;;-0.32;90.14;101715.30;1855969;76;21083;-70
2021/01/05 06:42:55;;;;;;;1999.90;999.90;;;;;;;-0.30;90.27;101713.72;1852153;76;20965;-70
2021/01/05 06:45:29;;;;;;;1999.90;999.90;;;;;;;-0.28;90.33;101716.55;1849682;76;21376;-71
2021/01/05 06:47:57;;;;;;;1999.90;999.90;;;;;;;-0.25;90.31;101715.30;1851698;76;21150;-69
2021/01/05 06:50:28;;;;;;;1999.90;999.90;;;;;;;-0.25;89.99;101717.48;1853330;76;20984;-69
2021/01/05 06:52:55;;;;;;;1999.90;999.90;;;;;;;-0.24;90.07;101725.97;1848199;76;21384;-67
2021/01/05 06:55:24;;;;;;;1999.90;999.90;;;;;;;-0.23;90.48;101725.45;1853404;76;21078;-69
2021/01/05 06:57:52;;;;;;;1999.90;999.90;;;;;;;-0.25;90.20;101723.45;1852055;76;21258;-69
2021/01/05 07:00:23;;;;;;;1999.90;999.90;;;;;;;-0.26;90.00;101721.26;1846995;76;21150;-67
2021/01/05 07:02:51;;;;;;;1999.90;999.90;;;;;;;-0.24;90.05;101730.05;1853630;76;20956;-67
2021/01/05 07:05:20;;;;;;;1999.90;999.90;;;;;;;-0.24;89.74;101727.85;1851737;76;21132;-68
2021/01/05 07:07:48;;;;;;;1999.90;999.90;;;;;;;-0.23;89.42;101722.72;1851965;76;21110;-68
2021/01/05 07:10:17;;;;;;;1999.90;999.90;;;;;;;-0.21;89.88;101722.83;1851658;76;21343;-73
2021/01/05 07:12:45;;;;;;;1999.90;999.90;;;;;;;-0.21;89.38;101723.35;1850980;76;21557;-72
2021/01/05 07:15:15;;;;;;;1999.90;999.90;;;;;;;-0.19;89.35;101721.26;1850160;76;21582;-68
2021/01/05 07:17:43;;;;;;;1999.90;999.90;;;;;;;-0.19;89.42;101725.34;1842698;76;21491;-65
2021/01/05 07:20:12;;;;;;;1999.90;999.90;;;;;;;-0.19;89.19;101719.38;1842285;77;21063;-71
2021/01/05 07:22:40;;;;;;;1999.90;999.90;;;;;;;-0.17;89.48;101718.64;1849716;76;21130;-67
2021/01/05 07:25:11;;;;;;;1999.90;999.90;;;;;;;-0.16;89.50;101719.48;1852524;76;20976;-66
2021/01/05 07:27:39;;;;;;;1999.90;999.90;;;;;;;-0.16;89.16;101712.67;1849825;77;20968;-71
2021/01/05 07:30:08;;;;;;;1999.90;999.90;;;;;;;-0.15;89.37;101710.27;1851505;76;21008;-68
2021/01/05 07:32:36;;;;;;;1999.90;999.90;;;;;;;-0.15;89.36;101709.75;1845944;76;21114;-68
2021/01/05 07:35:04;;;;;;;1999.90;999.90;;;;;;;-0.13;89.04;101707.66;1846207;76;21425;-66
2021/01/05 07:37:36;;;;;;;1999.90;999.90;;;;;;;-0.11;89.15;101709.64;1850191;76;21828;-66
2021/01/05 07:40:06;;;;;;;1999.90;999.90;;;;;;;-0.12;88.44;101710.69;1851736;76;21023;-65
2021/01/05 07:42:34;;;;;;;1999.90;999.90;;;;;;;-0.11;88.76;101711.52;1852114;77;21095;-69
2021/01/05 07:45:07;;;;;;;1999.90;999.90;;;;;;;-0.10;88.46;101707.23;1841516;76;21075;-70
2021/01/05 07:47:37;;;;;;;1999.90;999.90;;;;;;;-0.09;88.23;101707.55;1842268;77;21194;-66
2021/01/05 07:50:16;;;;;;;1999.90;999.90;;;;;;;-0.06;88.18;101700.32;1839929;76;20977;-72
2021/01/05 07:52:43;;;;;;;1999.90;999.90;;;;;;;-0.05;88.00;101703.36;1811412;77;20913;-67
2021/01/05 07:55:23;;;;;;;1999.90;999.90;;;;;;;-0.03;88.37;101701.26;1854732;76;21098;-71
2021/01/05 07:57:51;;;;;;;1999.90;999.90;;;;;;;-0.03;88.19;101702.62;1855181;76;20906;-65
2021/01/05 08:00:24;;;;;;;1999.90;999.90;;;;;;;-0.01;88.30;101703.77;1842582;77;21363;-65
2021/01/05 08:02:55;;;;;;;1999.90;999.90;;;;;;;-0.02;88.04;101696.66;1786233;80;21008;-66
2021/01/05 08:05:26;;;;;;;1999.90;999.90;;;;;;;-0.03;87.54;101701.78;1812492;78;21013;-70
2021/01/05 08:07:55;;;;;;;1999.90;999.90;;;;;;;-0.03;87.88;101697.18;1808865;78;21483;-71
2021/01/05 08:10:28;;;;;;;1999.90;999.90;;;;;;;-0.02;88.62;101696.66;1811008;77;21107;-66
2021/01/05 08:12:57;;;;;;;1999.90;999.90;;;;;;;-0.03;87.93;101693.09;1812823;78;21199;-71
2021/01/05 08:15:30;;;;;;;1999.90;999.90;;;;;;;-0.02;87.50;101689.84;1808861;78;21032;-74
2021/01/05 08:17:59;;;;;;;1999.90;999.90;;;;;;;-0.01;87.92;101680.11;1807284;78;21080;-73
2021/01/05 08:20:29;;;;;;;1999.90;999.90;;;;;;;0.03;88.11;101672.92;1813288;77;21531;-71
2021/01/05 08:22:59;;;;;;;1999.90;999.90;;;;;;;0.05;87.92;101673.55;1785710;79;21144;-70
2021/01/05 08:25:27;;;;;;;1999.90;999.90;;;;;;;0.04;87.37;101670.51;1787237;79;21198;-74
2021/01/05 08:27:55;;;;;;;1999.90;999.90;;;;;;;0.03;87.27;101676.48;1774026;80;21012;-69
2021/01/05 08:30:27;;;;;;;1999.90;999.90;;;;;;;0.03;87.33;101667.48;1790685;78;21119;-68
2021/01/05 08:33:01;;;;;;;1999.90;999.90;;;;;;;0.03;86.94;101675.11;1813050;77;21539;-69
2021/01/05 08:35:29;;;;;;;1999.90;999.90;;;;;;;0.04;87.20;101667.27;1815084;77;21122;-73
2021/01/05 08:37:57;;;;;;;1999.90;999.90;;;;;;;0.07;87.07;101663.28;1815177;77;21368;-73
2021/01/05 08:40:28;;;;;;;1999.90;999.90;;;;;;;0.10;87.28;101660.97;1786021;78;21118;-76
2021/01/05 08:42:59;;;;;;;1999.90;999.90;;;;;;;0.15;87.11;101654.36;1805339;78;20961;-75
2021/01/05 08:45:29;;;;;;;1999.90;999.90;;;;;;;0.21;86.90;101656.23;1810417;78;20973;-77
2021/01/05 08:47:57;;;;;;;1999.90;999.90;;;;;;;0.23;86.26;101650.57;1801221;78;21485;-70
2021/01/05 08:50:29;;;;;;;1999.90;999.90;;;;;;;0.25;86.54;101650.67;1812298;78;21328;-67
2021/01/05 08:52:57;;;;;;;1999.90;999.90;;;;;;;0.31;86.83;101655.78;1810717;78;21554;-68
2021/01/05 08:55:25;;;;;;;1999.90;999.90;;;;;;;0.34;86.23;101647.71;1789693;79;21530;-73
2021/01/05 08:57:53;;;;;;;1999.90;999.90;;;;;;;0.31;85.88;101642.17;1813616;77;21633;-71
2021/01/05 09:00:22;;;;;;;1999.90;999.90;;;;;;;0.31;85.95;101636.72;1786200;78;20968;-72
2021/01/05 09:02:50;;;;;;;1999.90;999.90;;;;;;;0.28;86.17;101639.87;1780797;79;21398;-69
2021/01/05 09:05:18;;;;;;;1999.90;999.90;;;;;;;0.25;85.95;101645.75;1794370;78;21531;-71
2021/01/05 09:07:46;;;;;;;1999.90;999.90;;;;;;;0.21;86.46;101631.73;1787268;79;20961;-64
2021/01/05 09:10:21;;;;;;;1999.90;999.90;;;;;;;0.21;86.46;101630.36;1791428;78;21072;-68
2021/01/05 09:12:49;;;;;;;1999.90;999.90;;;;;;;0.20;86.37;101627.33;1811513;78;20968;-67
2021/01/05 09:15:20;;;;;;;1999.90;999.90;;;;;;;0.19;86.17;101631.10;1793178;78;21389;-69
2021/01/05 09:17:49;;;;;;;1999.90;999.90;;;;;;;0.19;86.43;101619.38;1812467;78;21023;-71
2021/01/05 09:20:22;;;;;;;1999.90;999.90;;;;;;;0.23;86.94;101619.27;1783672;78;21601;-66
2021/01/05 09:22:50;;;;;;;1999.90;999.90;;;;;;;0.28;86.99;101613.48;1792382;79;20996;-69
2021/01/05 09:25:18;;;;;;;1999.90;999.90;;;;;;;0.30;86.27;101611.38;1787934;79;21518;-64
2021/01/05 09:27:46;;;;;;;1999.90;999.90;;;;;;;0.30;86.05;101613.27;1790822;79;21387;-68
2021/01/05 09:30:16;;;;;;;1999.90;999.90;;;;;;;0.30;86.51;101608.66;1790500;78;21147;-65
2021/01/05 09:32:45;;;;;;;1999.90;999.90;;;;;;;0.27;86.32;101600.92;1794285;78;21031;-63
2021/01/05 09:35:13;;;;;;;1999.90;999.90;;;;;;;0.26;85.68;101598.41;1794103;78;21130;-64
2021/01/05 09:37:42;;;;;;;1999.90;999.90;;;;;;;0.29;86.26;101600.17;1793852;78;21124;-67
2021/01/05 09:40:11;;;;;;;1999.90;999.90;;;;;;;0.30;85.40;101600.48;1794078;78;21375;-68
2021/01/05 09:42:39;;;;;;;1999.90;999.90;;;;;;;0.29;85.55;101592.01;1814685;78;21043;-62
2021/01/05 09:45:08;;;;;;;1999.90;999.90;;;;;;;0.33;86.08;101589.69;1819274;78;20988;-67
2021/01/05 09:47:36;;;;;;;1999.90;999.90;;;;;;;0.37;85.56;101588.73;1816571;78;21028;-65
2021/01/05 09:50:05;;;;;;;1999.90;999.90;;;;;;;0.39;85.96;101585.27;1812235;78;21095;-65
2021/01/05 09:52:36;;;;;;;1999.90;999.90;;;;;;;0.43;85.84;101583.78;1779925;79;21380;-64
2021/01/05 09:55:05;;;;;;;1999.90;999.90;;;;;;;0.47;85.83;101580.41;1817762;78;21024;-65
2021/01/05 09:57:33;;;;;;;1999.90;999.90;;;;;;;0.54;85.70;101572.20;1816973;78;21915;-65
2021/01/05 10:00:02;;;;;;;1999.90;999.90;;;;;;;0.60;86.05;101564.52;1817180;78;21555;-65
2021/01/05 10:02:31;;;;;;;1999.90;999.90;;;;;;;0.63;85.56;101572.25;1772677;80;21179;-64
2021/01/05 10:04:58;;;;;;;1999.90;999.90;;;;;;;0.62;85.49;101561.89;1784205;80;21883;-65
2021/01/05 10:07:26;;;;;;;1999.90;999.90;;;;;;;0.62;85.64;101559.69;1773281;80;21133;-65
2021/01/05 10:09:55;;;;;;;1999.90;999.90;;;;;;;0.59;85.50;101559.59;1818378;78;21645;-65
2021/01/05 10:12:23;;;;;;;1999.90;999.90;;;;;;;0.59;85.19;101560.13;1816612;78;21676;-65
2021/01/05 10:14:51;;;;;;;1999.90;999.90;;;;;;;0.59;85.62;101551.95;1818268;78;21191;-65
2021/01/05 10:17:19;;;;;;;1999.90;999.90;;;;;;;0.60;85.08;101550.90;1793391;78;21343;-65
2021/01/05 10:19:47;;;;;;;1999.90;999.90;;;;;;;0.54;84.54;101543.08;1819474;78;21131;-65
2021/01/05 10:22:15;;;;;;;1999.90;999.90;;;;;;;0.53;84.88;101543.30;1796824;78;21519;-68
2021/01/05 10:24:43;;;;;;;1999.90;999.90;;;;;;;0.55;85.09;101535.73;1820197;78;21100;-65
2021/01/05 10:27:11;;;;;;;1999.90;999.90;;;;;;;0.60;85.59;101530.47;1814898;78;20998;-66
2021/01/05 10:29:38;;;;;;;1999.90;999.90;;;;;;;0.68;85.17;101530.73;1814141;78;21382;-66
2021/01/05 10:32:06;;;;;;;1999.90;999.90;;;;;;;0.73;84.38;101528.19;1789687;78;21071;-65
2021/01/05 10:34:34;;;;;;;1999.90;999.90;;;;;;;0.82;85.26;101526.34;1797907;78;21566;-65
2021/01/05 10:37:02;;;;;;;1999.90;999.90;;;;;;;0.87;84.28;101527.87;1818658;78;20957;-65
2021/01/05 10:39:30;;;;;;;1999.90;999.90;;;;;;;0.88;83.48;101524.09;1819351;78;21131;-66
2021/01/05 10:41:59;;;;;;;1999.90;999.90;;;;;;;0.89;83.97;101524.39;1810911;78;21435;-65
2021/01/05 10:44:27;;;;;;;1999.90;999.90;;;;;;;0.95;84.23;101524.04;1757698;80;21142;-66
2021/01/05 10:46:58;;;;;;;1999.90;999.90;;;;;;;1.06;84.07;101517.03;1779934;79;21004;-65
2021/01/05 10:49:26;;;;;;;1999.90;999.90;;;;;;;1.16;84.23;101520.92;1778687;80;21155;-65
2021/01/05 10:51:56;;;;;;;1999.90;999.90;;;;;;;1.26;83.46;101506.78;1815724;78;21083;-65
2021/01/05 10:57:04;;;;;;;1999.90;999.90;;;;;;;1.43;83.69;101501.06;1837005;76;22736;-65
2021/01/05 10:59:33;;;;;;;1999.90;999.90;;;;;;;1.46;83.66;101503.86;1815713;78;20898;-65
2021/01/05 11:02:02;;;;;;;1999.90;999.90;;;;;;;1.53;83.30;101505.47;1817370;78;21558;-64
2021/01/05 11:04:30;;;;;;;1999.90;999.90;;;;;;;1.55;82.83;101496.52;1813760;78;21020;-65
2021/01/05 11:07:04;;;;;;;1999.90;999.90;;;;;;;1.54;83.16;101492.13;1816275;78;20941;-65
2021/01/05 11:09:32;;;;;;;1999.90;999.90;;;;;;;1.54;83.62;101497.58;1815461;78;21506;-65
2021/01/05 11:12:09;;;;;;;1999.90;999.90;;;;;;;1.54;83.35;101492.13;1811429;78;20953;-65
2021/01/05 11:14:43;;;;;;;1999.90;999.90;;;;;;;1.52;83.12;101496.14;1817274;78;21424;-65
2021/01/05 11:17:11;;;;;;;1999.90;999.90;;;;;;;1.46;82.90;101493.79;1811471;78;20918;-64
2021/01/05 11:19:40;;;;;;;1999.90;999.90;;;;;;;1.41;82.94;101495.00;1818223;78;21000;-65
2021/01/05 11:22:14;;;;;;;1999.90;999.90;;;;;;;1.35;82.73;101499.16;1814076;78;21451;-65
2021/01/05 11:24:44;;;;;;;1999.90;999.90;;;;;;;1.24;82.87;101485.72;1819884;78;20973;-65
2021/01/05 11:27:19;;;;;;;1999.90;999.90;;;;;;;1.18;83.46;101484.73;1811661;78;21370;-67
2021/01/05 11:29:47;;;;;;;1999.90;999.90;;;;;;;1.14;83.39;101484.03;1819269;78;21005;-65